KSAN/SAN METAR and TAF weather

Enter ICAO airport designator
Station Type Date Time Source
KSAN METAR 2019/10/22 16:51 UTC NOAA

KSAN 221651Z 00000KT 10SM FEW010 28/04 A3007 RMK AO2 SLP182 T02780039


Station Type Date Time Source
KSAN Decoded METAR 2019/10/22 16:51 UTC NOAA

SAN DIEGO INTERNATIONAL \LINDBERGH FLD, CA, United States (KSAN) 32-44N 117-11W 12M
Oct 22, 2019 - 12:51 PM EDT / 2019.10.22 1651 UTC
Wind: Calm:0
Visibility: 10 mile(s):0
Sky conditions: mostly clear
Temperature: 82.0 F (27.8 C)
Dew Point: 39.0 F (3.9 C)
Relative Humidity: 21%
Pressure (altimeter): 30.07 in. Hg (1018 hPa)
ob: KSAN 221651Z 00000KT 10SM FEW010 28/04 A3007 RMK AO2 SLP182 T02780039
cycle: 17

Station Type Date Time Source
KSAN TAF 2019/10/22 18:34 UTC NOAA

TAF KSAN 221734Z 2218/2324 VRB04KT P6SM SKC
FM222000 30009KT P6SM SKC
FM230000 VRB04KT P6SM SKC
FM232000 27008KT P6SM SKC

Example: see airport list